sensor_id;sensor_type;location;lat;lon;timestamp;P1;durP1;ratioP1;P2;durP2;ratioP2
65420;SDS011;52028;50.658;14.004;2023-01-23T00:02:14;36.13;;;14.77;;
65420;SDS011;52028;50.658;14.004;2023-01-23T00:04:39;30.95;;;13.55;;
65420;SDS011;52028;50.658;14.004;2023-01-23T00:07:04;30.20;;;13.68;;
65420;SDS011;52028;50.658;14.004;2023-01-23T00:09:30;29.50;;;12.00;;
65420;SDS011;52028;50.658;14.004;2023-01-23T00:11:56;26.23;;;12.13;;
65420;SDS011;52028;50.658;14.004;2023-01-23T00:14:22;24.17;;;11.35;;
65420;SDS011;52028;50.658;14.004;2023-01-23T00:16:48;26.38;;;12.63;;
65420;SDS011;52028;50.658;14.004;2023-01-23T00:19:13;32.03;;;11.75;;
65420;SDS011;52028;50.658;14.004;2023-01-23T00:21:38;19.00;;;10.57;;
65420;SDS011;52028;50.658;14.004;2023-01-23T00:24:04;24.75;;;10.25;;
65420;SDS011;52028;50.658;14.004;2023-01-23T00:26:30;21.83;;;10.73;;
65420;SDS011;52028;50.658;14.004;2023-01-23T00:28:59;18.95;;;9.80;;
65420;SDS011;52028;50.658;14.004;2023-01-23T00:31:26;22.88;;;10.95;;
65420;SDS011;52028;50.658;14.004;2023-01-23T00:33:54;16.55;;;9.00;;
65420;SDS011;52028;50.658;14.004;2023-01-23T00:36:21;17.85;;;9.48;;
65420;SDS011;52028;50.658;14.004;2023-01-23T00:38:48;18.92;;;9.45;;
65420;SDS011;52028;50.658;14.004;2023-01-23T00:41:13;18.77;;;9.43;;
65420;SDS011;52028;50.658;14.004;2023-01-23T00:43:38;20.20;;;9.77;;
65420;SDS011;52028;50.658;14.004;2023-01-23T00:46:04;17.98;;;9.02;;
65420;SDS011;52028;50.658;14.004;2023-01-23T00:48:29;24.48;;;10.50;;
65420;SDS011;52028;50.658;14.004;2023-01-23T00:50:55;21.75;;;10.25;;
65420;SDS011;52028;50.658;14.004;2023-01-23T00:53:20;20.30;;;9.93;;
65420;SDS011;52028;50.658;14.004;2023-01-23T00:55:46;22.75;;;10.73;;
65420;SDS011;52028;50.658;14.004;2023-01-23T00:58:12;23.77;;;11.68;;
65420;SDS011;52028;50.658;14.004;2023-01-23T01:00:38;24.27;;;11.55;;
65420;SDS011;52028;50.658;14.004;2023-01-23T01:03:04;22.30;;;10.93;;
65420;SDS011;52028;50.658;14.004;2023-01-23T01:05:30;22.08;;;11.63;;
65420;SDS011;52028;50.658;14.004;2023-01-23T01:07:55;24.15;;;12.35;;
65420;SDS011;52028;50.658;14.004;2023-01-23T01:10:21;23.10;;;11.07;;
65420;SDS011;52028;50.658;14.004;2023-01-23T01:12:46;24.42;;;10.13;;
65420;SDS011;52028;50.658;14.004;2023-01-23T01:15:12;25.40;;;12.32;;
65420;SDS011;52028;50.658;14.004;2023-01-23T01:17:38;28.02;;;11.70;;
65420;SDS011;52028;50.658;14.004;2023-01-23T01:20:04;22.73;;;11.30;;
65420;SDS011;52028;50.658;14.004;2023-01-23T01:22:30;25.20;;;11.00;;
65420;SDS011;52028;50.658;14.004;2023-01-23T01:24:56;25.63;;;12.38;;
65420;SDS011;52028;50.658;14.004;2023-01-23T01:27:22;26.75;;;11.32;;
65420;SDS011;52028;50.658;14.004;2023-01-23T01:29:47;23.17;;;11.73;;
65420;SDS011;52028;50.658;14.004;2023-01-23T01:32:13;22.95;;;11.30;;
65420;SDS011;52028;50.658;14.004;2023-01-23T01:34:38;23.88;;;11.95;;
65420;SDS011;52028;50.658;14.004;2023-01-23T01:37:03;25.73;;;10.85;;
65420;SDS011;52028;50.658;14.004;2023-01-23T01:39:29;25.23;;;10.48;;
65420;SDS011;52028;50.658;14.004;2023-01-23T01:41:55;25.85;;;11.75;;
65420;SDS011;52028;50.658;14.004;2023-01-23T01:44:21;23.80;;;10.60;;
65420;SDS011;52028;50.658;14.004;2023-01-23T01:46:48;21.92;;;10.82;;
65420;SDS011;52028;50.658;14.004;2023-01-23T01:49:24;25.13;;;11.65;;
65420;SDS011;52028;50.658;14.004;2023-01-23T01:52:04;22.38;;;10.90;;
65420;SDS011;52028;50.658;14.004;2023-01-23T01:54:40;24.70;;;11.73;;
65420;SDS011;52028;50.658;14.004;2023-01-23T01:57:13;24.73;;;12.07;;
65420;SDS011;52028;50.658;14.004;2023-01-23T01:59:44;26.13;;;12.15;;
65420;SDS011;52028;50.658;14.004;2023-01-23T02:02:18;25.25;;;9.88;;
65420;SDS011;52028;50.658;14.004;2023-01-23T02:04:50;23.35;;;11.82;;
65420;SDS011;52028;50.658;14.004;2023-01-23T02:07:31;24.13;;;11.30;;
65420;SDS011;52028;50.658;14.004;2023-01-23T02:09:59;23.92;;;11.38;;
65420;SDS011;52028;50.658;14.004;2023-01-23T02:12:27;21.77;;;10.48;;
65420;SDS011;52028;50.658;14.004;2023-01-23T02:14:53;23.75;;;10.57;;
65420;SDS011;52028;50.658;14.004;2023-01-23T02:17:18;27.73;;;12.52;;
65420;SDS011;52028;50.658;14.004;2023-01-23T02:24:53;27.15;;;11.77;;
65420;SDS011;52028;50.658;14.004;2023-01-23T02:27:22;21.85;;;11.27;;
65420;SDS011;52028;50.658;14.004;2023-01-23T02:29:47;21.98;;;11.13;;
65420;SDS011;52028;50.658;14.004;2023-01-23T02:32:15;25.60;;;11.27;;
65420;SDS011;52028;50.658;14.004;2023-01-23T02:34:41;26.60;;;12.35;;
65420;SDS011;52028;50.658;14.004;2023-01-23T02:37:06;24.83;;;11.82;;
65420;SDS011;52028;50.658;14.004;2023-01-23T02:39:32;24.40;;;12.15;;
65420;SDS011;52028;50.658;14.004;2023-01-23T02:41:58;23.15;;;12.43;;
65420;SDS011;52028;50.658;14.004;2023-01-23T02:44:25;29.08;;;11.88;;
65420;SDS011;52028;50.658;14.004;2023-01-23T02:47:01;27.25;;;12.02;;
65420;SDS011;52028;50.658;14.004;2023-01-23T02:49:29;26.05;;;13.65;;
65420;SDS011;52028;50.658;14.004;2023-01-23T02:51:54;24.73;;;12.02;;
65420;SDS011;52028;50.658;14.004;2023-01-23T02:54:21;25.80;;;12.30;;
65420;SDS011;52028;50.658;14.004;2023-01-23T02:56:47;24.98;;;10.90;;
65420;SDS011;52028;50.658;14.004;2023-01-23T02:59:12;26.90;;;12.20;;
65420;SDS011;52028;50.658;14.004;2023-01-23T03:01:56;24.27;;;11.50;;
65420;SDS011;52028;50.658;14.004;2023-01-23T03:04:21;24.55;;;11.32;;
65420;SDS011;52028;50.658;14.004;2023-01-23T03:06:47;25.08;;;12.45;;
65420;SDS011;52028;50.658;14.004;2023-01-23T03:09:13;28.33;;;12.63;;
65420;SDS011;52028;50.658;14.004;2023-01-23T03:11:41;23.75;;;12.20;;
65420;SDS011;52028;50.658;14.004;2023-01-23T03:14:10;25.05;;;12.15;;
65420;SDS011;52028;50.658;14.004;2023-01-23T03:16:40;23.75;;;12.00;;
65420;SDS011;52028;50.658;14.004;2023-01-23T03:19:07;27.52;;;12.98;;
65420;SDS011;52028;50.658;14.004;2023-01-23T03:21:37;28.58;;;12.55;;
65420;SDS011;52028;50.658;14.004;2023-01-23T03:24:04;24.25;;;12.13;;
65420;SDS011;52028;50.658;14.004;2023-01-23T03:26:34;29.40;;;11.70;;
65420;SDS011;52028;50.658;14.004;2023-01-23T03:29:02;24.92;;;12.38;;
65420;SDS011;52028;50.658;14.004;2023-01-23T03:31:45;23.60;;;11.80;;
65420;SDS011;52028;50.658;14.004;2023-01-23T03:34:11;25.08;;;11.25;;
65420;SDS011;52028;50.658;14.004;2023-01-23T03:36:36;26.58;;;12.13;;
65420;SDS011;52028;50.658;14.004;2023-01-23T03:39:03;22.88;;;10.73;;
65420;SDS011;52028;50.658;14.004;2023-01-23T03:41:48;23.00;;;11.30;;
65420;SDS011;52028;50.658;14.004;2023-01-23T03:44:15;25.17;;;11.57;;
65420;SDS011;52028;50.658;14.004;2023-01-23T03:46:42;24.80;;;10.07;;
65420;SDS011;52028;50.658;14.004;2023-01-23T03:49:08;24.15;;;11.40;;
65420;SDS011;52028;50.658;14.004;2023-01-23T03:51:33;22.05;;;10.38;;
65420;SDS011;52028;50.658;14.004;2023-01-23T03:53:59;20.40;;;10.20;;
65420;SDS011;52028;50.658;14.004;2023-01-23T03:56:24;23.55;;;11.43;;
65420;SDS011;52028;50.658;14.004;2023-01-23T03:58:49;25.20;;;11.77;;
65420;SDS011;52028;50.658;14.004;2023-01-23T04:01:15;21.63;;;10.88;;
65420;SDS011;52028;50.658;14.004;2023-01-23T04:03:40;22.67;;;10.75;;
65420;SDS011;52028;50.658;14.004;2023-01-23T04:06:05;28.52;;;11.70;;
65420;SDS011;52028;50.658;14.004;2023-01-23T04:08:31;24.27;;;10.98;;
65420;SDS011;52028;50.658;14.004;2023-01-23T04:11:03;24.35;;;10.32;;
65420;SDS011;52028;50.658;14.004;2023-01-23T04:13:30;24.98;;;10.32;;
65420;SDS011;52028;50.658;14.004;2023-01-23T04:15:56;25.75;;;10.77;;
65420;SDS011;52028;50.658;14.004;2023-01-23T04:18:21;28.35;;;11.68;;
65420;SDS011;52028;50.658;14.004;2023-01-23T04:20:47;23.52;;;11.15;;
65420;SDS011;52028;50.658;14.004;2023-01-23T04:23:12;23.77;;;10.40;;
65420;SDS011;52028;50.658;14.004;2023-01-23T04:25:37;23.92;;;12.00;;
65420;SDS011;52028;50.658;14.004;2023-01-23T04:28:03;27.38;;;11.88;;
65420;SDS011;52028;50.658;14.004;2023-01-23T04:30:28;29.27;;;13.80;;
65420;SDS011;52028;50.658;14.004;2023-01-23T04:32:53;25.67;;;12.10;;
65420;SDS011;52028;50.658;14.004;2023-01-23T04:35:19;23.70;;;10.73;;
65420;SDS011;52028;50.658;14.004;2023-01-23T04:37:44;25.17;;;12.30;;
65420;SDS011;52028;50.658;14.004;2023-01-23T04:40:09;26.65;;;11.52;;
65420;SDS011;52028;50.658;14.004;2023-01-23T04:42:35;23.73;;;10.98;;
65420;SDS011;52028;50.658;14.004;2023-01-23T04:45:00;24.23;;;11.55;;
65420;SDS011;52028;50.658;14.004;2023-01-23T04:47:26;25.70;;;9.98;;
65420;SDS011;52028;50.658;14.004;2023-01-23T04:49:51;22.55;;;10.60;;
65420;SDS011;52028;50.658;14.004;2023-01-23T04:52:16;24.15;;;12.20;;
65420;SDS011;52028;50.658;14.004;2023-01-23T04:54:42;24.73;;;12.43;;
65420;SDS011;52028;50.658;14.004;2023-01-23T04:57:07;20.90;;;10.27;;
65420;SDS011;52028;50.658;14.004;2023-01-23T04:59:33;22.27;;;10.63;;
65420;SDS011;52028;50.658;14.004;2023-01-23T05:01:58;26.65;;;11.02;;
65420;SDS011;52028;50.658;14.004;2023-01-23T05:04:23;26.30;;;12.30;;
65420;SDS011;52028;50.658;14.004;2023-01-23T05:06:49;24.02;;;11.77;;
65420;SDS011;52028;50.658;14.004;2023-01-23T05:09:14;25.02;;;10.95;;
65420;SDS011;52028;50.658;14.004;2023-01-23T05:11:39;23.85;;;10.68;;
65420;SDS011;52028;50.658;14.004;2023-01-23T05:14:05;24.05;;;11.38;;
65420;SDS011;52028;50.658;14.004;2023-01-23T05:16:30;22.58;;;9.88;;
65420;SDS011;52028;50.658;14.004;2023-01-23T05:18:55;21.67;;;9.52;;
65420;SDS011;52028;50.658;14.004;2023-01-23T05:21:21;22.30;;;10.20;;
65420;SDS011;52028;50.658;14.004;2023-01-23T05:23:46;22.70;;;10.38;;
65420;SDS011;52028;50.658;14.004;2023-01-23T05:26:11;24.92;;;10.30;;
65420;SDS011;52028;50.658;14.004;2023-01-23T05:28:37;22.13;;;10.68;;
65420;SDS011;52028;50.658;14.004;2023-01-23T05:31:02;25.52;;;11.45;;
65420;SDS011;52028;50.658;14.004;2023-01-23T05:33:27;22.38;;;10.38;;
65420;SDS011;52028;50.658;14.004;2023-01-23T05:35:57;25.00;;;11.88;;
65420;SDS011;52028;50.658;14.004;2023-01-23T05:40:48;19.75;;;10.15;;
65420;SDS011;52028;50.658;14.004;2023-01-23T05:43:13;24.60;;;10.38;;
65420;SDS011;52028;50.658;14.004;2023-01-23T05:45:39;20.50;;;10.00;;
65420;SDS011;52028;50.658;14.004;2023-01-23T05:48:06;22.65;;;11.05;;
65420;SDS011;52028;50.658;14.004;2023-01-23T05:50:31;21.00;;;10.10;;
65420;SDS011;52028;50.658;14.004;2023-01-23T05:52:56;21.40;;;9.32;;
65420;SDS011;52028;50.658;14.004;2023-01-23T05:55:22;18.95;;;9.70;;
65420;SDS011;52028;50.658;14.004;2023-01-23T05:57:47;24.05;;;10.27;;
65420;SDS011;52028;50.658;14.004;2023-01-23T06:00:13;22.77;;;10.32;;
65420;SDS011;52028;50.658;14.004;2023-01-23T06:02:39;21.48;;;10.45;;
65420;SDS011;52028;50.658;14.004;2023-01-23T06:05:04;20.55;;;10.57;;
65420;SDS011;52028;50.658;14.004;2023-01-23T06:07:30;21.92;;;10.68;;
65420;SDS011;52028;50.658;14.004;2023-01-23T06:09:55;26.77;;;12.30;;
65420;SDS011;52028;50.658;14.004;2023-01-23T06:12:21;33.28;;;13.65;;
65420;SDS011;52028;50.658;14.004;2023-01-23T06:14:46;25.83;;;13.23;;
65420;SDS011;52028;50.658;14.004;2023-01-23T06:17:12;28.52;;;12.65;;
65420;SDS011;52028;50.658;14.004;2023-01-23T06:19:37;26.17;;;12.23;;
65420;SDS011;52028;50.658;14.004;2023-01-23T06:22:03;21.98;;;10.02;;
65420;SDS011;52028;50.658;14.004;2023-01-23T06:24:28;27.60;;;11.77;;
65420;SDS011;52028;50.658;14.004;2023-01-23T06:26:54;21.17;;;11.25;;
65420;SDS011;52028;50.658;14.004;2023-01-23T06:29:19;22.42;;;10.20;;
65420;SDS011;52028;50.658;14.004;2023-01-23T06:31:45;20.25;;;9.93;;
65420;SDS011;52028;50.658;14.004;2023-01-23T06:34:11;21.50;;;10.85;;
65420;SDS011;52028;50.658;14.004;2023-01-23T06:36:38;25.90;;;11.32;;
65420;SDS011;52028;50.658;14.004;2023-01-23T06:39:04;26.50;;;11.60;;
65420;SDS011;52028;50.658;14.004;2023-01-23T06:41:29;20.38;;;11.20;;
65420;SDS011;52028;50.658;14.004;2023-01-23T06:43:55;32.42;;;13.68;;
65420;SDS011;52028;50.658;14.004;2023-01-23T06:46:20;26.17;;;12.27;;
65420;SDS011;52028;50.658;14.004;2023-01-23T06:48:46;27.92;;;12.77;;
65420;SDS011;52028;50.658;14.004;2023-01-23T06:51:11;26.70;;;13.95;;
65420;SDS011;52028;50.658;14.004;2023-01-23T06:53:36;25.83;;;11.52;;
65420;SDS011;52028;50.658;14.004;2023-01-23T06:56:03;28.08;;;11.32;;
65420;SDS011;52028;50.658;14.004;2023-01-23T06:58:30;24.73;;;11.88;;
65420;SDS011;52028;50.658;14.004;2023-01-23T07:00:56;25.48;;;11.13;;
65420;SDS011;52028;50.658;14.004;2023-01-23T07:03:21;26.75;;;10.15;;
65420;SDS011;52028;50.658;14.004;2023-01-23T07:05:47;18.77;;;10.05;;
65420;SDS011;52028;50.658;14.004;2023-01-23T07:08:12;23.58;;;10.07;;
65420;SDS011;52028;50.658;14.004;2023-01-23T07:10:38;22.02;;;10.48;;
65420;SDS011;52028;50.658;14.004;2023-01-23T07:13:04;23.73;;;10.50;;
65420;SDS011;52028;50.658;14.004;2023-01-23T07:15:30;18.63;;;9.70;;
65420;SDS011;52028;50.658;14.004;2023-01-23T07:17:56;18.17;;;10.18;;
65420;SDS011;52028;50.658;14.004;2023-01-23T07:20:21;23.02;;;10.07;;
65420;SDS011;52028;50.658;14.004;2023-01-23T07:22:51;21.25;;;10.65;;
65420;SDS011;52028;50.658;14.004;2023-01-23T07:25:17;24.13;;;10.27;;
65420;SDS011;52028;50.658;14.004;2023-01-23T07:27:42;23.65;;;11.07;;
65420;SDS011;52028;50.658;14.004;2023-01-23T07:30:08;24.92;;;11.52;;
65420;SDS011;52028;50.658;14.004;2023-01-23T07:32:34;23.02;;;11.10;;
65420;SDS011;52028;50.658;14.004;2023-01-23T07:34:59;20.65;;;10.68;;
65420;SDS011;52028;50.658;14.004;2023-01-23T07:37:25;31.05;;;12.90;;
65420;SDS011;52028;50.658;14.004;2023-01-23T07:39:50;23.70;;;11.32;;
65420;SDS011;52028;50.658;14.004;2023-01-23T07:42:15;24.88;;;13.52;;
65420;SDS011;52028;50.658;14.004;2023-01-23T07:44:41;33.40;;;14.82;;
65420;SDS011;52028;50.658;14.004;2023-01-23T07:47:06;29.40;;;12.88;;
65420;SDS011;52028;50.658;14.004;2023-01-23T07:49:31;27.10;;;12.43;;
65420;SDS011;52028;50.658;14.004;2023-01-23T07:51:57;26.38;;;12.90;;
65420;SDS011;52028;50.658;14.004;2023-01-23T07:54:22;24.83;;;12.05;;
65420;SDS011;52028;50.658;14.004;2023-01-23T07:56:48;22.70;;;11.30;;
65420;SDS011;52028;50.658;14.004;2023-01-23T07:59:15;22.13;;;11.80;;
65420;SDS011;52028;50.658;14.004;2023-01-23T08:01:40;21.63;;;11.48;;
65420;SDS011;52028;50.658;14.004;2023-01-23T08:04:05;21.88;;;11.20;;
65420;SDS011;52028;50.658;14.004;2023-01-23T08:06:31;20.90;;;10.00;;
65420;SDS011;52028;50.658;14.004;2023-01-23T08:08:58;17.85;;;9.60;;
65420;SDS011;52028;50.658;14.004;2023-01-23T08:11:23;19.42;;;9.88;;
65420;SDS011;52028;50.658;14.004;2023-01-23T08:13:50;19.30;;;11.50;;
65420;SDS011;52028;50.658;14.004;2023-01-23T08:16:16;19.38;;;9.48;;
65420;SDS011;52028;50.658;14.004;2023-01-23T08:18:41;17.50;;;9.52;;
65420;SDS011;52028;50.658;14.004;2023-01-23T08:21:08;18.13;;;9.15;;
65420;SDS011;52028;50.658;14.004;2023-01-23T08:23:34;20.83;;;10.00;;
65420;SDS011;52028;50.658;14.004;2023-01-23T08:26:00;17.92;;;9.98;;
65420;SDS011;52028;50.658;14.004;2023-01-23T08:28:28;17.92;;;8.43;;
65420;SDS011;52028;50.658;14.004;2023-01-23T08:30:53;19.52;;;9.13;;
65420;SDS011;52028;50.658;14.004;2023-01-23T08:33:19;19.00;;;9.13;;
65420;SDS011;52028;50.658;14.004;2023-01-23T08:35:52;17.58;;;8.93;;
65420;SDS011;52028;50.658;14.004;2023-01-23T08:38:19;17.88;;;9.27;;
65420;SDS011;52028;50.658;14.004;2023-01-23T08:40:45;15.45;;;8.18;;
65420;SDS011;52028;50.658;14.004;2023-01-23T08:43:11;14.98;;;8.57;;
65420;SDS011;52028;50.658;14.004;2023-01-23T08:45:38;16.88;;;9.15;;
65420;SDS011;52028;50.658;14.004;2023-01-23T08:48:05;19.17;;;9.50;;
65420;SDS011;52028;50.658;14.004;2023-01-23T08:50:30;20.25;;;12.65;;
65420;SDS011;52028;50.658;14.004;2023-01-23T08:52:56;19.17;;;9.75;;
65420;SDS011;52028;50.658;14.004;2023-01-23T08:55:21;17.13;;;8.65;;
65420;SDS011;52028;50.658;14.004;2023-01-23T08:57:48;16.92;;;7.38;;
65420;SDS011;52028;50.658;14.004;2023-01-23T09:00:13;16.23;;;7.80;;
65420;SDS011;52028;50.658;14.004;2023-01-23T09:02:39;14.20;;;7.25;;
65420;SDS011;52028;50.658;14.004;2023-01-23T09:05:04;17.40;;;8.90;;
65420;SDS011;52028;50.658;14.004;2023-01-23T09:07:30;13.90;;;7.95;;
65420;SDS011;52028;50.658;14.004;2023-01-23T09:09:56;16.42;;;8.65;;
65420;SDS011;52028;50.658;14.004;2023-01-23T09:12:21;15.90;;;8.15;;
65420;SDS011;52028;50.658;14.004;2023-01-23T09:14:46;16.10;;;8.45;;
65420;SDS011;52028;50.658;14.004;2023-01-23T09:17:12;16.42;;;8.98;;
65420;SDS011;52028;50.658;14.004;2023-01-23T09:19:37;14.95;;;8.32;;
65420;SDS011;52028;50.658;14.004;2023-01-23T09:22:02;18.90;;;8.75;;
65420;SDS011;52028;50.658;14.004;2023-01-23T09:24:28;14.52;;;8.02;;
65420;SDS011;52028;50.658;14.004;2023-01-23T09:26:53;15.93;;;7.82;;
65420;SDS011;52028;50.658;14.004;2023-01-23T09:29:19;14.00;;;8.00;;
65420;SDS011;52028;50.658;14.004;2023-01-23T09:31:44;14.10;;;7.78;;
65420;SDS011;52028;50.658;14.004;2023-01-23T09:34:09;15.25;;;6.85;;
65420;SDS011;52028;50.658;14.004;2023-01-23T09:36:35;14.00;;;7.18;;
65420;SDS011;52028;50.658;14.004;2023-01-23T09:39:00;15.70;;;7.43;;
65420;SDS011;52028;50.658;14.004;2023-01-23T09:41:27;15.13;;;8.57;;
65420;SDS011;52028;50.658;14.004;2023-01-23T09:49:13;14.73;;;7.68;;
65420;SDS011;52028;50.658;14.004;2023-01-23T09:57:18;22.08;;;12.02;;
65420;SDS011;52028;50.658;14.004;2023-01-23T09:59:58;17.75;;;6.78;;
65420;SDS011;52028;50.658;14.004;2023-01-23T10:02:29;14.07;;;7.32;;
65420;SDS011;52028;50.658;14.004;2023-01-23T10:04:55;16.40;;;9.10;;
65420;SDS011;52028;50.658;14.004;2023-01-23T10:21:50;14.82;;;7.22;;
65420;SDS011;52028;50.658;14.004;2023-01-23T10:27:23;14.32;;;7.60;;
65420;SDS011;52028;50.658;14.004;2023-01-23T10:29:55;18.85;;;7.97;;
65420;SDS011;52028;50.658;14.004;2023-01-23T10:32:24;14.85;;;7.05;;
65420;SDS011;52028;50.658;14.004;2023-01-23T10:35:02;16.38;;;7.95;;
65420;SDS011;52028;50.658;14.004;2023-01-23T10:37:47;13.70;;;7.32;;
65420;SDS011;52028;50.658;14.004;2023-01-23T10:40:20;16.13;;;8.27;;
65420;SDS011;52028;50.658;14.004;2023-01-23T10:43:13;16.90;;;7.82;;
65420;SDS011;52028;50.658;14.004;2023-01-23T10:45:40;17.23;;;8.98;;
65420;SDS011;52028;50.658;14.004;2023-01-23T10:54:05;15.25;;;8.82;;
65420;SDS011;52028;50.658;14.004;2023-01-23T10:56:36;17.77;;;8.15;;
65420;SDS011;52028;50.658;14.004;2023-01-23T10:59:12;16.65;;;8.43;;
65420;SDS011;52028;50.658;14.004;2023-01-23T11:01:52;12.93;;;7.60;;
65420;SDS011;52028;50.658;14.004;2023-01-23T11:04:20;16.23;;;8.23;;
65420;SDS011;52028;50.658;14.004;2023-01-23T11:09:28;14.50;;;7.70;;
65420;SDS011;52028;50.658;14.004;2023-01-23T11:12:04;13.13;;;8.23;;
65420;SDS011;52028;50.658;14.004;2023-01-23T11:14:30;16.00;;;9.20;;
65420;SDS011;52028;50.658;14.004;2023-01-23T11:16:59;14.52;;;8.88;;
65420;SDS011;52028;50.658;14.004;2023-01-23T11:19:37;17.02;;;8.43;;
65420;SDS011;52028;50.658;14.004;2023-01-23T11:22:03;14.52;;;7.70;;
65420;SDS011;52028;50.658;14.004;2023-01-23T11:24:31;17.30;;;9.45;;
65420;SDS011;52028;50.658;14.004;2023-01-23T11:32:32;14.38;;;8.27;;
65420;SDS011;52028;50.658;14.004;2023-01-23T11:35:10;13.70;;;7.97;;
65420;SDS011;52028;50.658;14.004;2023-01-23T11:37:39;16.95;;;8.30;;
65420;SDS011;52028;50.658;14.004;2023-01-23T11:42:37;17.88;;;9.05;;
65420;SDS011;52028;50.658;14.004;2023-01-23T11:45:10;11.57;;;7.53;;
65420;SDS011;52028;50.658;14.004;2023-01-23T12:04:18;14.88;;;7.65;;
65420;SDS011;52028;50.658;14.004;2023-01-23T12:09:40;16.58;;;7.35;;
65420;SDS011;52028;50.658;14.004;2023-01-23T12:12:20;15.57;;;7.80;;
65420;SDS011;52028;50.658;14.004;2023-01-23T12:31:32;18.48;;;8.77;;
65420;SDS011;52028;50.658;14.004;2023-01-23T12:42:13;18.05;;;7.88;;
65420;SDS011;52028;50.658;14.004;2023-01-23T12:44:51;13.63;;;6.88;;
65420;SDS011;52028;50.658;14.004;2023-01-23T12:47:23;15.35;;;7.93;;
65420;SDS011;52028;50.658;14.004;2023-01-23T12:54:57;14.82;;;7.95;;
65420;SDS011;52028;50.658;14.004;2023-01-23T12:57:27;14.43;;;7.85;;
65420;SDS011;52028;50.658;14.004;2023-01-23T13:05:33;16.60;;;8.45;;
65420;SDS011;52028;50.658;14.004;2023-01-23T13:14:20;14.45;;;7.60;;
65420;SDS011;52028;50.658;14.004;2023-01-23T13:16:46;16.73;;;8.00;;
65420;SDS011;52028;50.658;14.004;2023-01-23T13:19:21;16.33;;;8.32;;
65420;SDS011;52028;50.658;14.004;2023-01-23T13:24:48;14.63;;;7.47;;
65420;SDS011;52028;50.658;14.004;2023-01-23T13:27:49;14.60;;;7.72;;
65420;SDS011;52028;50.658;14.004;2023-01-23T13:32:51;14.23;;;7.45;;
65420;SDS011;52028;50.658;14.004;2023-01-23T13:48:51;13.35;;;7.45;;
65420;SDS011;52028;50.658;14.004;2023-01-23T13:51:42;15.00;;;7.93;;
65420;SDS011;52028;50.658;14.004;2023-01-23T13:54:10;16.10;;;7.97;;
65420;SDS011;52028;50.658;14.004;2023-01-23T13:56:56;15.93;;;8.45;;
65420;SDS011;52028;50.658;14.004;2023-01-23T13:59:27;14.05;;;7.68;;
65420;SDS011;52028;50.658;14.004;2023-01-23T14:02:29;16.58;;;8.90;;
65420;SDS011;52028;50.658;14.004;2023-01-23T14:05:14;17.55;;;8.25;;
65420;SDS011;52028;50.658;14.004;2023-01-23T14:07:44;14.88;;;7.80;;
65420;SDS011;52028;50.658;14.004;2023-01-23T14:12:40;17.85;;;8.57;;
65420;SDS011;52028;50.658;14.004;2023-01-23T14:15:24;18.48;;;8.52;;
65420;SDS011;52028;50.658;14.004;2023-01-23T14:18:16;16.55;;;8.35;;
65420;SDS011;52028;50.658;14.004;2023-01-23T14:20:42;18.80;;;8.60;;
65420;SDS011;52028;50.658;14.004;2023-01-23T14:23:42;16.17;;;8.43;;
65420;SDS011;52028;50.658;14.004;2023-01-23T14:26:06;19.20;;;9.15;;
65420;SDS011;52028;50.658;14.004;2023-01-23T14:28:35;15.75;;;8.23;;
65420;SDS011;52028;50.658;14.004;2023-01-23T14:31:05;19.70;;;9.07;;
65420;SDS011;52028;50.658;14.004;2023-01-23T14:33:38;28.48;;;12.52;;
65420;SDS011;52028;50.658;14.004;2023-01-23T14:36:05;22.50;;;10.57;;
65420;SDS011;52028;50.658;14.004;2023-01-23T14:38:36;17.08;;;8.68;;
65420;SDS011;52028;50.658;14.004;2023-01-23T14:41:02;20.02;;;11.25;;
65420;SDS011;52028;50.658;14.004;2023-01-23T14:43:30;20.90;;;10.23;;
65420;SDS011;52028;50.658;14.004;2023-01-23T14:45:58;18.58;;;10.50;;
65420;SDS011;52028;50.658;14.004;2023-01-23T14:48:31;20.83;;;9.13;;
65420;SDS011;52028;50.658;14.004;2023-01-23T14:51:03;18.45;;;8.52;;
65420;SDS011;52028;50.658;14.004;2023-01-23T14:53:37;19.02;;;8.50;;
65420;SDS011;52028;50.658;14.004;2023-01-23T14:56:03;20.65;;;8.85;;
65420;SDS011;52028;50.658;14.004;2023-01-23T14:58:29;18.83;;;9.77;;
65420;SDS011;52028;50.658;14.004;2023-01-23T15:00:55;19.27;;;9.13;;
65420;SDS011;52028;50.658;14.004;2023-01-23T15:03:34;20.50;;;10.27;;
65420;SDS011;52028;50.658;14.004;2023-01-23T15:06:02;21.38;;;10.90;;
65420;SDS011;52028;50.658;14.004;2023-01-23T15:08:32;20.67;;;10.30;;
65420;SDS011;52028;50.658;14.004;2023-01-23T15:10:58;20.70;;;9.20;;
65420;SDS011;52028;50.658;14.004;2023-01-23T15:13:35;21.42;;;9.43;;
65420;SDS011;52028;50.658;14.004;2023-01-23T15:21:23;18.75;;;7.65;;
65420;SDS011;52028;50.658;14.004;2023-01-23T15:26:39;18.08;;;8.18;;
65420;SDS011;52028;50.658;14.004;2023-01-23T15:31:31;19.40;;;9.18;;
65420;SDS011;52028;50.658;14.004;2023-01-23T15:36:37;18.60;;;9.00;;
65420;SDS011;52028;50.658;14.004;2023-01-23T15:39:03;20.92;;;9.30;;
65420;SDS011;52028;50.658;14.004;2023-01-23T15:41:41;20.17;;;9.63;;
65420;SDS011;52028;50.658;14.004;2023-01-23T15:44:12;20.90;;;9.57;;
65420;SDS011;52028;50.658;14.004;2023-01-23T15:46:39;19.85;;;9.85;;
65420;SDS011;52028;50.658;14.004;2023-01-23T15:49:04;18.65;;;8.70;;
65420;SDS011;52028;50.658;14.004;2023-01-23T15:51:30;18.05;;;8.23;;
65420;SDS011;52028;50.658;14.004;2023-01-23T15:53:55;17.02;;;7.80;;
65420;SDS011;52028;50.658;14.004;2023-01-23T15:56:26;18.38;;;8.55;;
65420;SDS011;52028;50.658;14.004;2023-01-23T15:58:53;16.63;;;8.02;;
65420;SDS011;52028;50.658;14.004;2023-01-23T16:01:18;17.88;;;7.60;;
65420;SDS011;52028;50.658;14.004;2023-01-23T16:03:44;14.80;;;7.63;;
65420;SDS011;52028;50.658;14.004;2023-01-23T16:06:13;16.83;;;7.90;;
65420;SDS011;52028;50.658;14.004;2023-01-23T16:08:42;17.27;;;8.30;;
65420;SDS011;52028;50.658;14.004;2023-01-23T16:11:08;16.08;;;7.45;;
65420;SDS011;52028;50.658;14.004;2023-01-23T16:13:33;16.17;;;7.43;;
65420;SDS011;52028;50.658;14.004;2023-01-23T16:15:59;17.88;;;7.30;;
65420;SDS011;52028;50.658;14.004;2023-01-23T16:18:24;13.07;;;7.40;;
65420;SDS011;52028;50.658;14.004;2023-01-23T16:20:49;16.90;;;7.20;;
65420;SDS011;52028;50.658;14.004;2023-01-23T16:23:17;15.00;;;7.32;;
65420;SDS011;52028;50.658;14.004;2023-01-23T16:25:44;15.48;;;7.95;;
65420;SDS011;52028;50.658;14.004;2023-01-23T16:28:11;14.88;;;7.72;;
65420;SDS011;52028;50.658;14.004;2023-01-23T16:30:36;14.88;;;7.70;;
65420;SDS011;52028;50.658;14.004;2023-01-23T16:33:02;15.00;;;6.60;;
65420;SDS011;52028;50.658;14.004;2023-01-23T16:35:27;16.65;;;7.47;;
65420;SDS011;52028;50.658;14.004;2023-01-23T16:37:53;16.33;;;8.25;;
65420;SDS011;52028;50.658;14.004;2023-01-23T16:40:22;13.73;;;6.57;;
65420;SDS011;52028;50.658;14.004;2023-01-23T16:42:50;16.42;;;7.60;;
65420;SDS011;52028;50.658;14.004;2023-01-23T16:45:17;18.52;;;8.75;;
65420;SDS011;52028;50.658;14.004;2023-01-23T16:47:46;20.02;;;8.68;;